Airfield :
LOGIN :

Register | Disclaimer

   EN    FR    IT 

 










Legend :    VFR   Marginal VFR   IFR   Intensive IFR   Very Intensive IFR
Visi :
Ceiling :
>= 8 km
>= 3000ft
5 to 8 km
1000 to 3000 ft
1500m to 5 km
500 to 1000 ft
800 to 1500m
200 to 500 ft
< 800m
< 200 ft
Symbols :   Thunderstorms  Fog  Heavy snow  Heavy precipitations  Wind > 20 kt
SIGMETs :     Misc.  Thunderstorms  Icing  Turbulence  Mountain Waves  Volcanic Ashes






- Airport Elevation : 364 ft
- IATA code : FRA


EDDF - Frankfurt Int.

CURRENT METAR :
  • 280720Z 06007KT 4500 BR FEW002 OVC004 00/M00 Q1021 TEMPO 2500

EXPIRED METARs :
  • 280650Z 07007KT 5000 BR FEW002 OVC004 01/M00 Q1021 TEMPO 2500
  • 280620Z 06008KT 6000 FEW002 OVC004 01/00 Q1021 TEMPO BKN005
  • 280550Z 06008KT 6000 OVC003 01/00 Q1020 TEMPO BKN005
  • 280520Z 07009KT 6000 BKN003 01/00 Q1020 TEMPO BKN005
  • 280450Z 05007KT 6000 FEW001 BKN003 01/00 Q1020 TEMPO BKN005

TAF TAF EDDF
Valid from the 28 at 06:00 until the 29 at 12:00 UTC


280500Z 2806/2912 05007KT 8000 OVC003
TEMPO 2806/2809 2500 BR
PROB40
TEMPO 2807/2809 BKN005
BECMG 2809/2811 BKN008
TEMPO 2811/2818 BKN012
PROB40
TEMPO 2811/2818 SCT010
BECMG 2819/2822 BKN020
BECMG 2900/2903 SCT020



MET'MAP, your aeronautical weather chart ! - Copyright ORBIFLY December 2007 - Disclaimer

ORBIFLY MET'MAP TEAM :

Programming & Development : Alexandra Zaïnal
Concept & original design : Baudouin d'Aumeries
Assistance for programming : Marc-Olivier Méhu
Technical & hardware support : Manuel Goepfert

Contact : metmap@orbifly.com




SOURCES & CREDITS :

   NOAA